Terminal Aerodrome Forecast
Issued by NWS Atlanta, GA

Home | Current Version | Previous Version | Text Only | Print | Product List | Glossary On
Versions: 1 2 3 4 5 6 7 8 9 10 11 12 13 14 15 16 17 18 19 20 21 22
576
FTUS42 KFFC 272325
TAFCSG
TAF
KCSG 272325Z 2800/2824 20006KT P6SM SCT060
     FM280300 00000KT P6SM SCT250
     FM280900 00000KT 5SM BR BKN008
     FM281400 27006KT P6SM BKN012
     FM281700 28008KT P6SM VCSH BKN040
     FM282000 28007KT P6SM SCT060 PROB30 2820/2824 5SM TSRA
      BKN035CB=

USA.gov is the U.S. government's official web portal to all federal, state and local government web resources and services.